sensor_id;sensor_type;location;lat;lon;timestamp;P1;durP1;ratioP1;P2;durP2;ratioP2
1154;SDS011;566;48.414;9.118;2023-01-28T00:01:13;51.22;;;29.75;;
1154;SDS011;566;48.414;9.118;2023-01-28T00:03:40;45.03;;;28.10;;
1154;SDS011;566;48.414;9.118;2023-01-28T00:06:11;48.20;;;28.25;;
1154;SDS011;566;48.414;9.118;2023-01-28T00:08:38;44.60;;;26.88;;
1154;SDS011;566;48.414;9.118;2023-01-28T00:11:05;50.10;;;29.35;;
1154;SDS011;566;48.414;9.118;2023-01-28T00:13:33;54.95;;;31.65;;
1154;SDS011;566;48.414;9.118;2023-01-28T00:16:03;51.53;;;30.33;;
1154;SDS011;566;48.414;9.118;2023-01-28T00:18:31;55.05;;;30.52;;
1154;SDS011;566;48.414;9.118;2023-01-28T00:21:00;47.97;;;28.10;;
1154;SDS011;566;48.414;9.118;2023-01-28T00:23:27;44.35;;;26.98;;
1154;SDS011;566;48.414;9.118;2023-01-28T00:26:00;48.70;;;28.75;;
1154;SDS011;566;48.414;9.118;2023-01-28T00:28:27;43.65;;;27.60;;
1154;SDS011;566;48.414;9.118;2023-01-28T00:30:53;41.95;;;25.48;;
1154;SDS011;566;48.414;9.118;2023-01-28T00:33:19;48.88;;;29.00;;
1154;SDS011;566;48.414;9.118;2023-01-28T00:35:44;46.78;;;28.95;;
1154;SDS011;566;48.414;9.118;2023-01-28T00:38:10;41.13;;;25.40;;
1154;SDS011;566;48.414;9.118;2023-01-28T00:40:36;45.35;;;27.67;;
1154;SDS011;566;48.414;9.118;2023-01-28T00:43:02;46.28;;;27.33;;
1154;SDS011;566;48.414;9.118;2023-01-28T00:45:28;45.22;;;27.33;;
1154;SDS011;566;48.414;9.118;2023-01-28T00:47:53;44.67;;;27.42;;
1154;SDS011;566;48.414;9.118;2023-01-28T00:50:19;48.13;;;29.13;;
1154;SDS011;566;48.414;9.118;2023-01-28T00:52:46;43.97;;;25.33;;
1154;SDS011;566;48.414;9.118;2023-01-28T00:55:12;50.08;;;28.50;;
1154;SDS011;566;48.414;9.118;2023-01-28T00:57:38;45.83;;;27.42;;
1154;SDS011;566;48.414;9.118;2023-01-28T01:00:04;46.83;;;28.30;;
1154;SDS011;566;48.414;9.118;2023-01-28T01:02:30;62.55;;;31.27;;
1154;SDS011;566;48.414;9.118;2023-01-28T01:04:56;51.63;;;29.02;;
1154;SDS011;566;48.414;9.118;2023-01-28T01:07:26;50.35;;;28.70;;
1154;SDS011;566;48.414;9.118;2023-01-28T01:10:02;48.45;;;27.85;;
1154;SDS011;566;48.414;9.118;2023-01-28T01:12:28;54.95;;;30.75;;
1154;SDS011;566;48.414;9.118;2023-01-28T01:14:54;54.80;;;30.92;;
1154;SDS011;566;48.414;9.118;2023-01-28T01:17:20;62.95;;;33.50;;
1154;SDS011;566;48.414;9.118;2023-01-28T01:19:46;52.60;;;31.40;;
1154;SDS011;566;48.414;9.118;2023-01-28T01:22:12;50.53;;;30.63;;
1154;SDS011;566;48.414;9.118;2023-01-28T01:24:37;58.15;;;32.38;;
1154;SDS011;566;48.414;9.118;2023-01-28T01:27:03;53.63;;;30.77;;
1154;SDS011;566;48.414;9.118;2023-01-28T01:29:30;60.63;;;32.40;;
1154;SDS011;566;48.414;9.118;2023-01-28T01:31:59;57.47;;;31.58;;
1154;SDS011;566;48.414;9.118;2023-01-28T01:34:24;58.03;;;31.83;;
1154;SDS011;566;48.414;9.118;2023-01-28T01:36:50;60.75;;;31.73;;
1154;SDS011;566;48.414;9.118;2023-01-28T01:39:16;51.97;;;28.98;;
1154;SDS011;566;48.414;9.118;2023-01-28T01:41:41;57.72;;;31.48;;
1154;SDS011;566;48.414;9.118;2023-01-28T01:44:46;66.50;;;35.33;;
1154;SDS011;566;48.414;9.118;2023-01-28T01:47:11;60.85;;;33.30;;
1154;SDS011;566;48.414;9.118;2023-01-28T01:49:38;60.78;;;32.22;;
1154;SDS011;566;48.414;9.118;2023-01-28T01:52:08;56.38;;;31.25;;
1154;SDS011;566;48.414;9.118;2023-01-28T01:54:37;47.67;;;28.52;;
1154;SDS011;566;48.414;9.118;2023-01-28T01:57:06;55.28;;;30.95;;
1154;SDS011;566;48.414;9.118;2023-01-28T01:59:35;48.28;;;27.35;;
1154;SDS011;566;48.414;9.118;2023-01-28T02:02:02;56.35;;;31.08;;
1154;SDS011;566;48.414;9.118;2023-01-28T02:04:32;55.53;;;30.08;;
1154;SDS011;566;48.414;9.118;2023-01-28T02:07:08;57.85;;;31.27;;
1154;SDS011;566;48.414;9.118;2023-01-28T02:09:36;44.63;;;26.23;;
1154;SDS011;566;48.414;9.118;2023-01-28T02:12:10;56.70;;;28.95;;
1154;SDS011;566;48.414;9.118;2023-01-28T02:14:40;50.75;;;28.55;;
1154;SDS011;566;48.414;9.118;2023-01-28T02:17:08;48.05;;;28.17;;
1154;SDS011;566;48.414;9.118;2023-01-28T02:22:42;53.17;;;28.50;;
1154;SDS011;566;48.414;9.118;2023-01-28T02:28:00;56.50;;;29.65;;
1154;SDS011;566;48.414;9.118;2023-01-28T02:36:05;38.90;;;22.98;;
1154;SDS011;566;48.414;9.118;2023-01-28T02:38:54;42.10;;;24.27;;
1154;SDS011;566;48.414;9.118;2023-01-28T02:41:30;42.45;;;24.20;;
1154;SDS011;566;48.414;9.118;2023-01-28T02:44:01;53.80;;;27.13;;
1154;SDS011;566;48.414;9.118;2023-01-28T02:49:13;45.85;;;24.92;;
1154;SDS011;566;48.414;9.118;2023-01-28T02:51:55;39.72;;;22.40;;
1154;SDS011;566;48.414;9.118;2023-01-28T02:54:54;44.53;;;23.75;;
1154;SDS011;566;48.414;9.118;2023-01-28T03:02:57;44.70;;;23.83;;
1154;SDS011;566;48.414;9.118;2023-01-28T03:05:36;46.53;;;25.45;;
1154;SDS011;566;48.414;9.118;2023-01-28T03:08:06;40.00;;;22.40;;
1154;SDS011;566;48.414;9.118;2023-01-28T03:10:53;38.90;;;21.50;;
1154;SDS011;566;48.414;9.118;2023-01-28T03:13:39;45.90;;;24.17;;
1154;SDS011;566;48.414;9.118;2023-01-28T03:16:24;37.28;;;21.13;;
1154;SDS011;566;48.414;9.118;2023-01-28T03:19:09;33.40;;;19.85;;
1154;SDS011;566;48.414;9.118;2023-01-28T03:21:56;39.67;;;21.90;;
1154;SDS011;566;48.414;9.118;2023-01-28T03:24:47;35.20;;;21.02;;
1154;SDS011;566;48.414;9.118;2023-01-28T03:27:44;44.75;;;23.65;;
1154;SDS011;566;48.414;9.118;2023-01-28T03:30:37;40.08;;;21.63;;
1154;SDS011;566;48.414;9.118;2023-01-28T03:33:28;41.20;;;21.52;;
1154;SDS011;566;48.414;9.118;2023-01-28T03:36:13;39.10;;;22.35;;
1154;SDS011;566;48.414;9.118;2023-01-28T03:38:58;34.55;;;20.30;;
1154;SDS011;566;48.414;9.118;2023-01-28T03:41:24;32.28;;;19.65;;
1154;SDS011;566;48.414;9.118;2023-01-28T03:43:50;35.15;;;20.48;;
1154;SDS011;566;48.414;9.118;2023-01-28T03:46:17;33.45;;;19.25;;
1154;SDS011;566;48.414;9.118;2023-01-28T03:48:43;32.45;;;19.33;;
1154;SDS011;566;48.414;9.118;2023-01-28T03:51:09;30.70;;;18.08;;
1154;SDS011;566;48.414;9.118;2023-01-28T03:53:35;28.52;;;17.60;;
1154;SDS011;566;48.414;9.118;2023-01-28T03:56:01;27.42;;;16.65;;
1154;SDS011;566;48.414;9.118;2023-01-28T03:58:26;29.35;;;17.25;;
1154;SDS011;566;48.414;9.118;2023-01-28T04:01:09;29.95;;;17.90;;
1154;SDS011;566;48.414;9.118;2023-01-28T04:03:35;26.27;;;14.82;;
1154;SDS011;566;48.414;9.118;2023-01-28T04:06:03;31.10;;;17.15;;
1154;SDS011;566;48.414;9.118;2023-01-28T04:08:30;33.13;;;18.05;;
1154;SDS011;566;48.414;9.118;2023-01-28T04:10:56;34.80;;;20.67;;
1154;SDS011;566;48.414;9.118;2023-01-28T04:13:21;28.92;;;17.33;;
1154;SDS011;566;48.414;9.118;2023-01-28T04:15:47;27.20;;;15.75;;
1154;SDS011;566;48.414;9.118;2023-01-28T04:18:13;31.83;;;19.30;;
1154;SDS011;566;48.414;9.118;2023-01-28T04:20:39;28.10;;;16.92;;
1154;SDS011;566;48.414;9.118;2023-01-28T04:23:05;36.40;;;20.77;;
1154;SDS011;566;48.414;9.118;2023-01-28T04:25:32;40.95;;;21.67;;
1154;SDS011;566;48.414;9.118;2023-01-28T04:27:58;34.90;;;19.83;;
1154;SDS011;566;48.414;9.118;2023-01-28T04:30:23;35.65;;;20.52;;
1154;SDS011;566;48.414;9.118;2023-01-28T04:32:49;31.25;;;18.70;;
1154;SDS011;566;48.414;9.118;2023-01-28T04:35:15;30.75;;;18.98;;
1154;SDS011;566;48.414;9.118;2023-01-28T04:37:42;32.50;;;19.13;;
1154;SDS011;566;48.414;9.118;2023-01-28T04:40:08;38.63;;;22.77;;
1154;SDS011;566;48.414;9.118;2023-01-28T04:42:35;42.60;;;22.00;;
1154;SDS011;566;48.414;9.118;2023-01-28T04:45:04;33.47;;;20.02;;
1154;SDS011;566;48.414;9.118;2023-01-28T04:47:30;40.35;;;21.98;;
1154;SDS011;566;48.414;9.118;2023-01-28T04:49:56;33.25;;;20.08;;
1154;SDS011;566;48.414;9.118;2023-01-28T04:52:21;36.45;;;20.80;;
1154;SDS011;566;48.414;9.118;2023-01-28T04:54:47;28.27;;;17.70;;
1154;SDS011;566;48.414;9.118;2023-01-28T04:57:12;32.35;;;18.77;;
1154;SDS011;566;48.414;9.118;2023-01-28T04:59:39;34.47;;;19.38;;
1154;SDS011;566;48.414;9.118;2023-01-28T05:02:05;34.35;;;19.75;;
1154;SDS011;566;48.414;9.118;2023-01-28T05:04:30;46.33;;;23.00;;
1154;SDS011;566;48.414;9.118;2023-01-28T05:06:57;118.72;;;57.55;;
1154;SDS011;566;48.414;9.118;2023-01-28T05:09:22;100.40;;;49.33;;
1154;SDS011;566;48.414;9.118;2023-01-28T05:11:48;101.13;;;49.03;;
1154;SDS011;566;48.414;9.118;2023-01-28T05:14:13;40.90;;;23.10;;
1154;SDS011;566;48.414;9.118;2023-01-28T05:16:39;43.28;;;23.58;;
1154;SDS011;566;48.414;9.118;2023-01-28T05:19:04;34.88;;;19.95;;
1154;SDS011;566;48.414;9.118;2023-01-28T05:21:30;36.30;;;20.90;;
1154;SDS011;566;48.414;9.118;2023-01-28T05:23:55;38.92;;;22.15;;
1154;SDS011;566;48.414;9.118;2023-01-28T05:26:21;59.42;;;33.10;;
1154;SDS011;566;48.414;9.118;2023-01-28T05:28:46;42.88;;;24.65;;
1154;SDS011;566;48.414;9.118;2023-01-28T05:31:12;34.72;;;20.42;;
1154;SDS011;566;48.414;9.118;2023-01-28T05:33:39;41.80;;;22.23;;
1154;SDS011;566;48.414;9.118;2023-01-28T05:36:04;30.27;;;18.63;;
1154;SDS011;566;48.414;9.118;2023-01-28T05:38:30;29.67;;;18.10;;
1154;SDS011;566;48.414;9.118;2023-01-28T05:40:55;41.40;;;23.90;;
1154;SDS011;566;48.414;9.118;2023-01-28T05:43:21;35.75;;;21.23;;
1154;SDS011;566;48.414;9.118;2023-01-28T05:45:47;41.50;;;22.98;;
1154;SDS011;566;48.414;9.118;2023-01-28T05:48:13;40.35;;;22.60;;
1154;SDS011;566;48.414;9.118;2023-01-28T05:50:45;37.20;;;22.27;;
1154;SDS011;566;48.414;9.118;2023-01-28T05:53:11;46.67;;;23.40;;
1154;SDS011;566;48.414;9.118;2023-01-28T05:55:37;39.03;;;21.27;;
1154;SDS011;566;48.414;9.118;2023-01-28T05:58:02;40.75;;;24.42;;
1154;SDS011;566;48.414;9.118;2023-01-28T06:00:28;36.55;;;20.60;;
1154;SDS011;566;48.414;9.118;2023-01-28T06:02:53;28.73;;;17.13;;
1154;SDS011;566;48.414;9.118;2023-01-28T06:05:19;32.25;;;18.80;;
1154;SDS011;566;48.414;9.118;2023-01-28T06:07:45;30.95;;;18.33;;
1154;SDS011;566;48.414;9.118;2023-01-28T06:10:12;31.20;;;18.67;;
1154;SDS011;566;48.414;9.118;2023-01-28T06:12:38;29.10;;;17.77;;
1154;SDS011;566;48.414;9.118;2023-01-28T06:15:04;32.45;;;20.15;;
1154;SDS011;566;48.414;9.118;2023-01-28T06:17:30;31.52;;;19.25;;
1154;SDS011;566;48.414;9.118;2023-01-28T06:19:56;34.65;;;20.73;;
1154;SDS011;566;48.414;9.118;2023-01-28T06:22:21;34.17;;;18.85;;
1154;SDS011;566;48.414;9.118;2023-01-28T06:24:47;33.55;;;17.90;;
1154;SDS011;566;48.414;9.118;2023-01-28T06:27:12;34.13;;;20.02;;
1154;SDS011;566;48.414;9.118;2023-01-28T06:29:38;37.47;;;20.98;;
1154;SDS011;566;48.414;9.118;2023-01-28T06:32:04;38.08;;;21.77;;
1154;SDS011;566;48.414;9.118;2023-01-28T06:34:30;38.00;;;20.98;;
1154;SDS011;566;48.414;9.118;2023-01-28T06:36:55;34.70;;;20.15;;
1154;SDS011;566;48.414;9.118;2023-01-28T06:39:21;31.05;;;18.48;;
1154;SDS011;566;48.414;9.118;2023-01-28T06:41:47;31.50;;;17.95;;
1154;SDS011;566;48.414;9.118;2023-01-28T06:44:14;34.42;;;20.05;;
1154;SDS011;566;48.414;9.118;2023-01-28T06:46:39;28.65;;;17.70;;
1154;SDS011;566;48.414;9.118;2023-01-28T06:49:05;31.45;;;19.00;;
1154;SDS011;566;48.414;9.118;2023-01-28T06:51:30;32.65;;;17.60;;
1154;SDS011;566;48.414;9.118;2023-01-28T06:53:56;33.10;;;19.65;;
1154;SDS011;566;48.414;9.118;2023-01-28T06:56:22;31.80;;;19.33;;
1154;SDS011;566;48.414;9.118;2023-01-28T06:58:47;31.08;;;18.33;;
1154;SDS011;566;48.414;9.118;2023-01-28T07:01:13;30.63;;;18.85;;
1154;SDS011;566;48.414;9.118;2023-01-28T07:03:39;36.72;;;21.60;;
1154;SDS011;566;48.414;9.118;2023-01-28T07:06:04;37.80;;;22.48;;
1154;SDS011;566;48.414;9.118;2023-01-28T07:08:30;30.67;;;17.83;;
1154;SDS011;566;48.414;9.118;2023-01-28T07:10:57;36.58;;;21.17;;
1154;SDS011;566;48.414;9.118;2023-01-28T07:13:23;38.17;;;21.80;;
1154;SDS011;566;48.414;9.118;2023-01-28T07:15:48;34.47;;;20.30;;
1154;SDS011;566;48.414;9.118;2023-01-28T07:18:14;29.60;;;18.77;;
1154;SDS011;566;48.414;9.118;2023-01-28T07:20:40;38.78;;;22.77;;
1154;SDS011;566;48.414;9.118;2023-01-28T07:23:06;31.58;;;19.65;;
1154;SDS011;566;48.414;9.118;2023-01-28T07:25:32;35.08;;;22.02;;
1154;SDS011;566;48.414;9.118;2023-01-28T07:27:57;38.53;;;23.80;;
1154;SDS011;566;48.414;9.118;2023-01-28T07:30:26;46.22;;;24.30;;
1154;SDS011;566;48.414;9.118;2023-01-28T07:32:55;33.30;;;19.80;;
1154;SDS011;566;48.414;9.118;2023-01-28T07:35:22;38.05;;;22.75;;
1154;SDS011;566;48.414;9.118;2023-01-28T07:37:52;37.60;;;23.80;;
1154;SDS011;566;48.414;9.118;2023-01-28T07:40:19;32.97;;;20.58;;
1154;SDS011;566;48.414;9.118;2023-01-28T07:42:45;37.05;;;20.90;;
1154;SDS011;566;48.414;9.118;2023-01-28T07:45:11;31.88;;;19.73;;
1154;SDS011;566;48.414;9.118;2023-01-28T07:47:38;32.67;;;20.55;;
1154;SDS011;566;48.414;9.118;2023-01-28T07:50:03;33.47;;;20.80;;
1154;SDS011;566;48.414;9.118;2023-01-28T07:52:29;30.55;;;18.85;;
1154;SDS011;566;48.414;9.118;2023-01-28T07:54:55;34.13;;;19.92;;
1154;SDS011;566;48.414;9.118;2023-01-28T07:57:20;28.35;;;17.88;;
1154;SDS011;566;48.414;9.118;2023-01-28T07:59:49;31.45;;;19.58;;
1154;SDS011;566;48.414;9.118;2023-01-28T08:02:15;35.80;;;21.55;;
1154;SDS011;566;48.414;9.118;2023-01-28T08:04:41;36.30;;;20.95;;
1154;SDS011;566;48.414;9.118;2023-01-28T08:07:07;31.20;;;18.65;;
1154;SDS011;566;48.414;9.118;2023-01-28T08:09:33;35.53;;;21.13;;
1154;SDS011;566;48.414;9.118;2023-01-28T08:12:00;33.10;;;20.20;;
1154;SDS011;566;48.414;9.118;2023-01-28T08:14:26;28.63;;;19.45;;
1154;SDS011;566;48.414;9.118;2023-01-28T08:16:52;28.00;;;18.15;;
1154;SDS011;566;48.414;9.118;2023-01-28T08:19:17;28.38;;;17.73;;
1154;SDS011;566;48.414;9.118;2023-01-28T08:21:46;30.40;;;19.35;;
1154;SDS011;566;48.414;9.118;2023-01-28T08:24:12;38.40;;;23.30;;
1154;SDS011;566;48.414;9.118;2023-01-28T08:26:37;30.45;;;19.05;;
1154;SDS011;566;48.414;9.118;2023-01-28T08:29:03;27.90;;;18.23;;
1154;SDS011;566;48.414;9.118;2023-01-28T08:31:29;32.35;;;19.83;;
1154;SDS011;566;48.414;9.118;2023-01-28T08:33:55;32.92;;;19.33;;
1154;SDS011;566;48.414;9.118;2023-01-28T08:36:20;29.88;;;19.95;;
1154;SDS011;566;48.414;9.118;2023-01-28T08:38:46;29.15;;;19.27;;
1154;SDS011;566;48.414;9.118;2023-01-28T08:41:18;30.38;;;20.13;;
1154;SDS011;566;48.414;9.118;2023-01-28T08:43:45;26.88;;;16.55;;
1154;SDS011;566;48.414;9.118;2023-01-28T08:46:11;27.10;;;16.98;;
1154;SDS011;566;48.414;9.118;2023-01-28T08:48:37;25.80;;;16.35;;
1154;SDS011;566;48.414;9.118;2023-01-28T08:51:02;27.48;;;16.02;;
1154;SDS011;566;48.414;9.118;2023-01-28T08:53:28;29.50;;;17.70;;
1154;SDS011;566;48.414;9.118;2023-01-28T08:55:53;25.63;;;15.75;;
1154;SDS011;566;48.414;9.118;2023-01-28T08:58:19;27.95;;;18.88;;
1154;SDS011;566;48.414;9.118;2023-01-28T09:00:46;25.23;;;16.63;;
1154;SDS011;566;48.414;9.118;2023-01-28T09:03:12;23.98;;;15.50;;
1154;SDS011;566;48.414;9.118;2023-01-28T09:05:38;25.25;;;14.85;;
1154;SDS011;566;48.414;9.118;2023-01-28T09:08:04;29.83;;;18.38;;
1154;SDS011;566;48.414;9.118;2023-01-28T09:10:31;26.45;;;16.85;;
1154;SDS011;566;48.414;9.118;2023-01-28T09:12:57;32.40;;;19.15;;
1154;SDS011;566;48.414;9.118;2023-01-28T09:15:23;26.15;;;16.17;;
1154;SDS011;566;48.414;9.118;2023-01-28T09:17:48;23.55;;;14.98;;
1154;SDS011;566;48.414;9.118;2023-01-28T09:20:14;26.40;;;15.73;;
1154;SDS011;566;48.414;9.118;2023-01-28T09:22:40;34.78;;;21.35;;
1154;SDS011;566;48.414;9.118;2023-01-28T09:25:06;36.08;;;21.60;;
1154;SDS011;566;48.414;9.118;2023-01-28T09:27:32;26.92;;;17.67;;
1154;SDS011;566;48.414;9.118;2023-01-28T09:29:57;34.30;;;20.15;;
1154;SDS011;566;48.414;9.118;2023-01-28T09:32:23;30.42;;;17.98;;
1154;SDS011;566;48.414;9.118;2023-01-28T09:34:49;29.75;;;18.17;;
1154;SDS011;566;48.414;9.118;2023-01-28T09:37:14;28.58;;;18.70;;
1154;SDS011;566;48.414;9.118;2023-01-28T09:39:42;32.20;;;21.38;;
1154;SDS011;566;48.414;9.118;2023-01-28T09:44:58;31.45;;;20.63;;
1154;SDS011;566;48.414;9.118;2023-01-28T09:47:39;42.42;;;26.65;;
1154;SDS011;566;48.414;9.118;2023-01-28T09:50:14;45.88;;;29.02;;
1154;SDS011;566;48.414;9.118;2023-01-28T09:52:59;33.95;;;21.20;;
1154;SDS011;566;48.414;9.118;2023-01-28T09:55:31;27.17;;;17.40;;
1154;SDS011;566;48.414;9.118;2023-01-28T09:58:04;30.10;;;18.70;;
1154;SDS011;566;48.414;9.118;2023-01-28T10:00:54;25.65;;;16.10;;
1154;SDS011;566;48.414;9.118;2023-01-28T10:03:38;32.42;;;19.58;;
1154;SDS011;566;48.414;9.118;2023-01-28T10:18:03;29.75;;;19.45;;
1154;SDS011;566;48.414;9.118;2023-01-28T10:20:35;29.00;;;19.13;;
1154;SDS011;566;48.414;9.118;2023-01-28T10:23:13;26.60;;;18.08;;
1154;SDS011;566;48.414;9.118;2023-01-28T10:26:03;31.92;;;19.77;;
1154;SDS011;566;48.414;9.118;2023-01-28T10:28:35;33.15;;;19.52;;
1154;SDS011;566;48.414;9.118;2023-01-28T10:31:01;25.83;;;17.90;;
1154;SDS011;566;48.414;9.118;2023-01-28T10:33:30;27.88;;;17.00;;
1154;SDS011;566;48.414;9.118;2023-01-28T10:35:59;29.08;;;20.08;;
1154;SDS011;566;48.414;9.118;2023-01-28T10:38:26;34.42;;;22.45;;
1154;SDS011;566;48.414;9.118;2023-01-28T10:40:53;29.05;;;18.92;;
1154;SDS011;566;48.414;9.118;2023-01-28T10:43:24;27.38;;;18.08;;
1154;SDS011;566;48.414;9.118;2023-01-28T10:48:45;23.63;;;16.10;;
1154;SDS011;566;48.414;9.118;2023-01-28T10:51:15;25.50;;;16.63;;
1154;SDS011;566;48.414;9.118;2023-01-28T10:53:44;22.90;;;15.70;;
1154;SDS011;566;48.414;9.118;2023-01-28T10:56:14;25.15;;;16.50;;
1154;SDS011;566;48.414;9.118;2023-01-28T10:59:27;24.88;;;16.02;;
1154;SDS011;566;48.414;9.118;2023-01-28T11:01:55;27.48;;;16.65;;
1154;SDS011;566;48.414;9.118;2023-01-28T11:04:44;22.88;;;15.15;;
1154;SDS011;566;48.414;9.118;2023-01-28T11:07:27;23.83;;;14.93;;
1154;SDS011;566;48.414;9.118;2023-01-28T11:09:53;24.90;;;16.95;;
1154;SDS011;566;48.414;9.118;2023-01-28T11:12:19;25.13;;;15.75;;
1154;SDS011;566;48.414;9.118;2023-01-28T11:17:21;29.40;;;19.15;;
1154;SDS011;566;48.414;9.118;2023-01-28T11:19:50;24.77;;;16.35;;
1154;SDS011;566;48.414;9.118;2023-01-28T11:22:22;25.98;;;16.95;;
1154;SDS011;566;48.414;9.118;2023-01-28T11:24:54;23.15;;;15.45;;
1154;SDS011;566;48.414;9.118;2023-01-28T11:27:22;21.65;;;14.98;;
1154;SDS011;566;48.414;9.118;2023-01-28T11:29:52;21.92;;;14.90;;
1154;SDS011;566;48.414;9.118;2023-01-28T11:32:23;24.52;;;16.17;;
1154;SDS011;566;48.414;9.118;2023-01-28T11:34:51;25.80;;;16.60;;
1154;SDS011;566;48.414;9.118;2023-01-28T11:37:23;26.15;;;17.08;;
1154;SDS011;566;48.414;9.118;2023-01-28T11:42:44;22.52;;;15.60;;
1154;SDS011;566;48.414;9.118;2023-01-28T11:45:16;20.25;;;14.05;;
1154;SDS011;566;48.414;9.118;2023-01-28T11:48:36;21.40;;;14.18;;
1154;SDS011;566;48.414;9.118;2023-01-28T11:50:50;21.95;;;14.95;;
1154;SDS011;566;48.414;9.118;2023-01-28T11:56:36;20.67;;;14.68;;
1154;SDS011;566;48.414;9.118;2023-01-28T12:01:46;22.38;;;15.05;;
1154;SDS011;566;48.414;9.118;2023-01-28T12:04:22;22.40;;;15.52;;
1154;SDS011;566;48.414;9.118;2023-01-28T12:07:09;25.67;;;15.85;;
1154;SDS011;566;48.414;9.118;2023-01-28T12:23:38;23.83;;;15.98;;
1154;SDS011;566;48.414;9.118;2023-01-28T12:31:57;21.77;;;14.88;;
1154;SDS011;566;48.414;9.118;2023-01-28T12:38:07;20.85;;;13.52;;
1154;SDS011;566;48.414;9.118;2023-01-28T12:43:40;19.35;;;13.20;;
1154;SDS011;566;48.414;9.118;2023-01-28T12:52:17;23.67;;;14.80;;
1154;SDS011;566;48.414;9.118;2023-01-28T12:57:31;22.52;;;14.10;;
1154;SDS011;566;48.414;9.118;2023-01-28T13:05:34;22.20;;;14.77;;
1154;SDS011;566;48.414;9.118;2023-01-28T13:13:18;22.63;;;15.05;;
1154;SDS011;566;48.414;9.118;2023-01-28T13:15:59;21.77;;;15.10;;
1154;SDS011;566;48.414;9.118;2023-01-28T13:21:03;20.30;;;13.52;;
1154;SDS011;566;48.414;9.118;2023-01-28T13:28:45;23.63;;;15.80;;
1154;SDS011;566;48.414;9.118;2023-01-28T13:31:13;23.65;;;15.18;;
1154;SDS011;566;48.414;9.118;2023-01-28T13:33:45;24.20;;;16.00;;
1154;SDS011;566;48.414;9.118;2023-01-28T13:36:20;26.80;;;17.70;;
1154;SDS011;566;48.414;9.118;2023-01-28T13:41:23;27.58;;;17.92;;
1154;SDS011;566;48.414;9.118;2023-01-28T13:44:00;28.02;;;17.60;;
1154;SDS011;566;48.414;9.118;2023-01-28T13:46:27;28.85;;;17.70;;
1154;SDS011;566;48.414;9.118;2023-01-28T13:48:56;33.30;;;18.58;;
1154;SDS011;566;48.414;9.118;2023-01-28T13:51:27;33.00;;;19.33;;
1154;SDS011;566;48.414;9.118;2023-01-28T13:54:04;30.50;;;17.63;;
1154;SDS011;566;48.414;9.118;2023-01-28T13:56:50;33.67;;;18.92;;
1154;SDS011;566;48.414;9.118;2023-01-28T14:02:23;29.27;;;18.70;;
1154;SDS011;566;48.414;9.118;2023-01-28T14:13:39;27.17;;;16.83;;
1154;SDS011;566;48.414;9.118;2023-01-28T14:16:43;28.77;;;17.23;;
1154;SDS011;566;48.414;9.118;2023-01-28T14:19:35;25.83;;;15.80;;
1154;SDS011;566;48.414;9.118;2023-01-28T14:22:08;26.23;;;16.08;;
1154;SDS011;566;48.414;9.118;2023-01-28T14:24:37;33.50;;;18.53;;
1154;SDS011;566;48.414;9.118;2023-01-28T14:27:07;33.65;;;21.13;;
1154;SDS011;566;48.414;9.118;2023-01-28T14:32:25;37.08;;;22.95;;
1154;SDS011;566;48.414;9.118;2023-01-28T14:34:53;30.80;;;19.55;;
1154;SDS011;566;48.414;9.118;2023-01-28T14:37:23;30.60;;;18.38;;
1154;SDS011;566;48.414;9.118;2023-01-28T14:39:58;36.00;;;19.33;;
1154;SDS011;566;48.414;9.118;2023-01-28T14:42:31;31.73;;;19.20;;
1154;SDS011;566;48.414;9.118;2023-01-28T14:50:52;29.43;;;18.00;;
1154;SDS011;566;48.414;9.118;2023-01-28T14:59:21;29.60;;;16.88;;
1154;SDS011;566;48.414;9.118;2023-01-28T15:01:54;35.35;;;20.20;;
1154;SDS011;566;48.414;9.118;2023-01-28T15:04:31;30.45;;;18.65;;
1154;SDS011;566;48.414;9.118;2023-01-28T15:07:13;35.92;;;20.65;;
1154;SDS011;566;48.414;9.118;2023-01-28T15:09:43;36.35;;;19.63;;
1154;SDS011;566;48.414;9.118;2023-01-28T15:12:10;31.15;;;18.05;;
1154;SDS011;566;48.414;9.118;2023-01-28T15:14:36;34.10;;;19.08;;
1154;SDS011;566;48.414;9.118;2023-01-28T15:17:03;35.13;;;19.65;;
1154;SDS011;566;48.414;9.118;2023-01-28T15:19:33;31.58;;;19.08;;
1154;SDS011;566;48.414;9.118;2023-01-28T15:22:05;36.60;;;21.08;;
1154;SDS011;566;48.414;9.118;2023-01-28T15:24:34;35.30;;;20.48;;
1154;SDS011;566;48.414;9.118;2023-01-28T15:27:00;40.58;;;23.67;;
1154;SDS011;566;48.414;9.118;2023-01-28T15:29:31;32.78;;;19.10;;
1154;SDS011;566;48.414;9.118;2023-01-28T15:31:58;33.50;;;20.02;;
1154;SDS011;566;48.414;9.118;2023-01-28T15:34:24;38.08;;;21.20;;
1154;SDS011;566;48.414;9.118;2023-01-28T15:36:56;42.47;;;23.63;;
1154;SDS011;566;48.414;9.118;2023-01-28T15:39:24;37.47;;;20.25;;
1154;SDS011;566;48.414;9.118;2023-01-28T15:41:55;40.83;;;23.55;;
1154;SDS011;566;48.414;9.118;2023-01-28T15:44:31;37.28;;;21.73;;
1154;SDS011;566;48.414;9.118;2023-01-28T15:47:02;34.33;;;19.63;;
1154;SDS011;566;48.414;9.118;2023-01-28T15:49:40;54.90;;;29.55;;
1154;SDS011;566;48.414;9.118;2023-01-28T15:52:11;60.17;;;29.63;;
1154;SDS011;566;48.414;9.118;2023-01-28T15:54:37;61.67;;;31.70;;
1154;SDS011;566;48.414;9.118;2023-01-28T15:57:21;38.00;;;21.65;;
1154;SDS011;566;48.414;9.118;2023-01-28T16:00:01;37.20;;;20.73;;
1154;SDS011;566;48.414;9.118;2023-01-28T16:02:31;41.75;;;22.55;;
1154;SDS011;566;48.414;9.118;2023-01-28T16:05:22;35.20;;;21.83;;
1154;SDS011;566;48.414;9.118;2023-01-28T16:07:56;39.35;;;22.35;;
1154;SDS011;566;48.414;9.118;2023-01-28T16:10:24;32.40;;;18.98;;
1154;SDS011;566;48.414;9.118;2023-01-28T16:13:15;33.53;;;19.80;;
1154;SDS011;566;48.414;9.118;2023-01-28T16:15:57;34.95;;;20.73;;
1154;SDS011;566;48.414;9.118;2023-01-28T16:18:29;33.65;;;20.67;;
1154;SDS011;566;48.414;9.118;2023-01-28T16:21:07;30.17;;;17.45;;
1154;SDS011;566;48.414;9.118;2023-01-28T16:23:36;26.77;;;16.40;;
1154;SDS011;566;48.414;9.118;2023-01-28T16:26:18;29.98;;;17.95;;
1154;SDS011;566;48.414;9.118;2023-01-28T16:28:50;29.85;;;18.10;;
1154;SDS011;566;48.414;9.118;2023-01-28T16:31:18;32.83;;;18.52;;
1154;SDS011;566;48.414;9.118;2023-01-28T16:33:44;31.65;;;19.80;;
1154;SDS011;566;48.414;9.118;2023-01-28T16:36:13;30.52;;;17.15;;
1154;SDS011;566;48.414;9.118;2023-01-28T16:38:40;33.05;;;19.83;;
1154;SDS011;566;48.414;9.118;2023-01-28T16:41:13;25.73;;;14.75;;
1154;SDS011;566;48.414;9.118;2023-01-28T16:43:46;27.85;;;16.30;;
1154;SDS011;566;48.414;9.118;2023-01-28T16:46:11;37.95;;;22.00;;
1154;SDS011;566;48.414;9.118;2023-01-28T16:48:37;38.30;;;21.67;;
1154;SDS011;566;48.414;9.118;2023-01-28T16:51:08;31.83;;;20.30;;
1154;SDS011;566;48.414;9.118;2023-01-28T16:53:40;36.03;;;20.50;;
1154;SDS011;566;48.414;9.118;2023-01-28T16:56:08;32.63;;;19.02;;
1154;SDS011;566;48.414;9.118;2023-01-28T16:58:37;29.10;;;17.10;;
1154;SDS011;566;48.414;9.118;2023-01-28T17:01:03;28.13;;;16.40;;
1154;SDS011;566;48.414;9.118;2023-01-28T17:03:28;30.00;;;17.00;;
1154;SDS011;566;48.414;9.118;2023-01-28T17:05:54;31.95;;;20.00;;
1154;SDS011;566;48.414;9.118;2023-01-28T17:08:21;32.83;;;19.30;;
1154;SDS011;566;48.414;9.118;2023-01-28T17:10:50;35.05;;;19.48;;
1154;SDS011;566;48.414;9.118;2023-01-28T17:13:19;30.75;;;20.90;;
1154;SDS011;566;48.414;9.118;2023-01-28T17:15:45;96.78;;;43.80;;
1154;SDS011;566;48.414;9.118;2023-01-28T17:18:10;32.78;;;19.95;;
1154;SDS011;566;48.414;9.118;2023-01-28T17:20:36;22.75;;;15.02;;
1154;SDS011;566;48.414;9.118;2023-01-28T17:23:04;30.98;;;19.17;;
1154;SDS011;566;48.414;9.118;2023-01-28T17:25:39;36.38;;;24.33;;
1154;SDS011;566;48.414;9.118;2023-01-28T17:28:05;37.08;;;21.30;;